Time;durP1;ratioP1;P1;durP2;ratioP2;P2;SDS_P1;SDS_P2;PMS_P1;PMS_P2;Temp;Humidity;BMP_temperature;BMP_pressure;BME280_temperature;BME280_humidity;BME280_pressure;Samples;Min_cycle;Max_cycle;Signal;HPM_P1;HPM_P2
2022/06/02 00:01:54;;;;;;;82.55;24.58;;;;;;;;;;5055864;28;20052;-24
2022/06/02 00:04:32;;;;;;;58.70;23.98;;;;;;;;;;5056251;28;20388;-25
2022/06/02 00:07:06;;;;;;;32.15;19.23;;;;;;;;;;5055818;28;20045;-24
2022/06/02 00:09:39;;;;;;;36.53;20.52;;;;;;;;;;5054127;28;20045;-25
2022/06/02 00:12:05;;;;;;;38.25;21.48;;;;;;;;;;5054918;28;20061;-25
2022/06/02 00:14:37;;;;;;;45.15;25.23;;;;;;;;;;5054731;28;20049;-24
2022/06/02 00:17:12;;;;;;;48.35;26.65;;;;;;;;;;5059729;28;20098;-24
2022/06/02 00:19:41;;;;;;;45.60;25.95;;;;;;;;;;5055430;28;20036;-25
2022/06/02 00:22:08;;;;;;;61.38;30.10;;;;;;;;;;5055789;28;20055;-24
2022/06/02 00:24:40;;;;;;;53.50;28.17;;;;;;;;;;5055677;28;20512;-24
2022/06/02 00:27:06;;;;;;;51.15;26.15;;;;;;;;;;5055907;28;20045;-24
2022/06/02 00:29:35;;;;;;;52.05;27.15;;;;;;;;;;5055045;28;20041;-24
2022/06/02 00:32:28;;;;;;;56.78;28.00;;;;;;;;;;5055005;28;20052;-24
2022/06/02 00:34:54;;;;;;;69.78;31.67;;;;;;;;;;5031480;28;20057;-24
2022/06/02 00:37:38;;;;;;;52.92;26.55;;;;;;;;;;5056186;28;20086;-24
2022/06/02 00:40:07;;;;;;;61.25;29.48;;;;;;;;;;5055149;28;20447;-25
2022/06/02 00:42:33;;;;;;;113.03;34.30;;;;;;;;;;5055002;28;20053;-24
2022/06/02 00:45:04;;;;;;;49.60;25.73;;;;;;;;;;5037751;28;20052;-24
2022/06/02 00:47:48;;;;;;;56.88;25.02;;;;;;;;;;5040902;28;20070;-24
2022/06/02 00:50:23;;;;;;;32.05;19.33;;;;;;;;;;5057023;28;20049;-25
2022/06/02 00:53:13;;;;;;;47.92;23.52;;;;;;;;;;5054902;28;20406;-24
2022/06/02 00:58:31;;;;;;;43.42;25.60;;;;;;;;;;5055601;28;20114;-24
2022/06/02 01:01:13;;;;;;;56.15;28.15;;;;;;;;;;5054553;28;20073;-24
2022/06/02 01:03:42;;;;;;;45.17;25.70;;;;;;;;;;5053044;28;20045;-24
2022/06/02 01:06:11;;;;;;;35.15;22.88;;;;;;;;;;5053962;28;20047;-25
2022/06/02 01:08:56;;;;;;;55.13;26.80;;;;;;;;;;5066017;28;20053;-24
2022/06/02 01:11:25;;;;;;;28.10;17.95;;;;;;;;;;5057634;28;20098;-24
2022/06/02 01:13:57;;;;;;;30.30;19.00;;;;;;;;;;5054748;28;20092;-24
2022/06/02 01:16:29;;;;;;;36.22;21.08;;;;;;;;;;5053446;28;20053;-24
2022/06/02 01:19:15;;;;;;;29.30;19.17;;;;;;;;;;5053785;28;20052;-24
2022/06/02 01:21:50;;;;;;;30.63;19.73;;;;;;;;;;5053651;28;20045;-25
2022/06/02 01:24:28;;;;;;;39.85;22.00;;;;;;;;;;5053451;28;20449;-24
2022/06/02 01:27:15;;;;;;;43.65;23.65;;;;;;;;;;5054473;28;20135;-24
2022/06/02 01:30:00;;;;;;;44.40;24.85;;;;;;;;;;5047103;28;20053;-24
2022/06/02 01:32:30;;;;;;;36.75;21.83;;;;;;;;;;5053412;28;20049;-25
2022/06/02 01:35:03;;;;;;;34.30;23.35;;;;;;;;;;5053909;28;20040;-25
2022/06/02 01:37:44;;;;;;;44.83;26.38;;;;;;;;;;5054013;28;20073;-25
2022/06/02 01:40:10;;;;;;;39.95;25.20;;;;;;;;;;5054236;28;20112;-24
2022/06/02 01:42:39;;;;;;;39.10;24.55;;;;;;;;;;5053149;28;20110;-25
2022/06/02 01:45:13;;;;;;;41.22;25.88;;;;;;;;;;5054223;28;20080;-24
2022/06/02 01:47:43;;;;;;;38.95;22.77;;;;;;;;;;5053762;28;20558;-24
2022/06/02 01:50:15;;;;;;;34.35;22.08;;;;;;;;;;5053273;28;20041;-25
2022/06/02 01:52:43;;;;;;;32.60;20.20;;;;;;;;;;5053048;28;20053;-25
2022/06/02 01:55:15;;;;;;;35.70;22.05;;;;;;;;;;5054575;28;20044;-25
2022/06/02 01:58:00;;;;;;;33.38;20.13;;;;;;;;;;5053965;28;20136;-25
2022/06/02 02:00:27;;;;;;;42.40;21.50;;;;;;;;;;5053926;28;20049;-24
2022/06/02 02:02:57;;;;;;;31.10;19.15;;;;;;;;;;5053705;28;20045;-24
2022/06/02 02:05:35;;;;;;;31.42;19.35;;;;;;;;;;5057021;28;20045;-25
2022/06/02 02:08:04;;;;;;;52.17;26.67;;;;;;;;;;5055868;28;20056;-25
2022/06/02 02:10:48;;;;;;;64.00;29.60;;;;;;;;;;5070927;28;20058;-24
2022/06/02 02:13:27;;;;;;;63.85;29.30;;;;;;;;;;5060282;28;20049;-24
2022/06/02 02:16:03;;;;;;;69.07;29.85;;;;;;;;;;5052509;28;20056;-24
2022/06/02 02:18:40;;;;;;;72.72;29.13;;;;;;;;;;5053361;28;20057;-24
2022/06/02 02:21:27;;;;;;;52.05;26.10;;;;;;;;;;5052370;28;20048;-25
2022/06/02 02:23:53;;;;;;;60.13;27.75;;;;;;;;;;5059547;28;20456;-24
2022/06/02 02:26:20;;;;;;;58.65;27.45;;;;;;;;;;5074203;28;20049;-24
2022/06/02 02:28:56;;;;;;;60.97;27.27;;;;;;;;;;5067344;28;20045;-25
2022/06/02 02:31:30;;;;;;;45.05;26.42;;;;;;;;;;5051893;28;20041;-25
2022/06/02 02:33:56;;;;;;;;;;;;;;;;;;5056580;28;20498;-25
2022/06/02 02:36:24;;;;;;;49.13;27.33;;;;;;;;;;5053504;28;20458;-24
2022/06/02 02:39:06;;;;;;;58.05;28.15;;;;;;;;;;5051977;28;20048;-24
2022/06/02 02:41:45;;;;;;;57.33;29.38;;;;;;;;;;5072220;28;20486;-25
2022/06/02 02:44:19;;;;;;;53.90;28.55;;;;;;;;;;5053580;28;20060;-24
2022/06/02 02:47:00;;;;;;;52.40;28.92;;;;;;;;;;5053114;28;20406;-24
2022/06/02 02:49:29;;;;;;;54.35;29.20;;;;;;;;;;5053154;28;20396;-24
2022/06/02 02:51:58;;;;;;;59.85;31.70;;;;;;;;;;5053399;28;20456;-24
2022/06/02 02:54:30;;;;;;;47.30;28.10;;;;;;;;;;5053670;28;20045;-25
2022/06/02 02:57:02;;;;;;;52.13;27.42;;;;;;;;;;5073901;28;20048;-24
2022/06/02 02:59:46;;;;;;;49.78;27.30;;;;;;;;;;5062293;28;20044;-24
2022/06/02 03:02:24;;;;;;;45.50;27.52;;;;;;;;;;5052837;28;20049;-24
2022/06/02 03:05:02;;;;;;;53.22;27.27;;;;;;;;;;5052915;28;20049;-24
2022/06/02 03:07:31;;;;;;;48.35;26.73;;;;;;;;;;5053279;28;20049;-24
2022/06/02 03:10:00;;;;;;;44.33;25.73;;;;;;;;;;5052528;28;20482;-24
2022/06/02 03:12:32;;;;;;;40.35;21.42;;;;;;;;;;5056214;28;20057;-24
2022/06/02 03:14:58;;;;;;;44.08;27.05;;;;;;;;;;5054828;28;20071;-24
2022/06/02 03:17:34;;;;;;;45.63;26.27;;;;;;;;;;5053041;28;20080;-24
2022/06/02 03:20:00;;;;;;;46.22;27.48;;;;;;;;;;5053591;28;20115;-24
2022/06/02 03:22:38;;;;;;;43.88;25.85;;;;;;;;;;5051964;28;20048;-24
2022/06/02 03:25:23;;;;;;;41.53;24.42;;;;;;;;;;5052100;28;20041;-24
2022/06/02 03:28:07;;;;;;;43.85;25.90;;;;;;;;;;5054642;28;20091;-24
2022/06/02 03:30:46;;;;;;;42.05;24.65;;;;;;;;;;5059084;28;20045;-24
2022/06/02 03:33:26;;;;;;;41.72;24.55;;;;;;;;;;5065090;28;20053;-24
2022/06/02 03:36:15;;;;;;;42.28;26.27;;;;;;;;;;5056996;28;20052;-24
2022/06/02 03:38:41;;;;;;;39.35;22.85;;;;;;;;;;5055417;28;20479;-24
2022/06/02 03:41:25;;;;;;;40.50;24.60;;;;;;;;;;5056576;28;20087;-24
2022/06/02 03:43:53;;;;;;;39.15;24.58;;;;;;;;;;5056210;28;20469;-24
2022/06/02 03:46:41;;;;;;;44.25;27.70;;;;;;;;;;5056954;28;20052;-24
2022/06/02 03:49:22;;;;;;;44.60;26.60;;;;;;;;;;5057003;28;20382;-24
2022/06/02 03:51:51;;;;;;;41.72;24.48;;;;;;;;;;5056214;28;20061;-24
2022/06/02 03:54:25;;;;;;;43.33;24.58;;;;;;;;;;5063743;28;20052;-24
2022/06/02 03:57:03;;;;;;;43.33;24.95;;;;;;;;;;5064947;28;20055;-24
2022/06/02 03:59:48;;;;;;;43.50;25.45;;;;;;;;;;5055697;28;20386;-24
2022/06/02 04:02:16;;;;;;;45.08;26.02;;;;;;;;;;5055246;28;20076;-24
2022/06/02 04:04:54;;;;;;;46.33;26.00;;;;;;;;;;5055523;28;20044;-24
2022/06/02 04:07:26;;;;;;;45.85;26.30;;;;;;;;;;5056159;28;20116;-24
2022/06/02 04:10:03;;;;;;;47.03;26.63;;;;;;;;;;5056585;28;20087;-24
2022/06/02 04:15:26;;;;;;;45.17;26.98;;;;;;;;;;5055586;28;20056;-24
2022/06/02 04:17:58;;;;;;;43.28;26.02;;;;;;;;;;5037471;28;20392;-24
2022/06/02 04:20:36;;;;;;;37.78;25.50;;;;;;;;;;5055197;28;20095;-25
2022/06/02 04:23:21;;;;;;;38.13;25.13;;;;;;;;;;5054551;28;20053;-24
2022/06/02 04:26:02;;;;;;;33.65;22.60;;;;;;;;;;5055623;28;20095;-25
2022/06/02 04:28:38;;;;;;;35.75;24.02;;;;;;;;;;5055702;28;20072;-25
2022/06/02 04:31:04;;;;;;;38.05;27.60;;;;;;;;;;5067261;28;20048;-24
2022/06/02 04:33:35;;;;;;;43.80;29.15;;;;;;;;;;5060228;28;20053;-25
2022/06/02 04:36:20;;;;;;;41.78;28.67;;;;;;;;;;5056050;28;20045;-25
2022/06/02 04:38:56;;;;;;;43.22;26.63;;;;;;;;;;5057040;28;20037;-25
2022/06/02 04:41:28;;;;;;;37.03;25.95;;;;;;;;;;5054720;28;20497;-25
2022/06/02 04:44:13;;;;;;;33.35;25.23;;;;;;;;;;5055669;28;20049;-24
2022/06/02 04:46:48;;;;;;;30.05;23.33;;;;;;;;;;5053433;28;20456;-25
2022/06/02 04:49:33;;;;;;;31.90;22.33;;;;;;;;;;5055799;28;20406;-25
2022/06/02 04:52:11;;;;;;;31.33;21.02;;;;;;;;;;5055255;28;20037;-25
2022/06/02 04:54:41;;;;;;;21.95;17.02;;;;;;;;;;5037321;28;20056;-25
2022/06/02 04:57:15;;;;;;;25.02;18.80;;;;;;;;;;5054886;28;20041;-25
2022/06/02 04:59:53;;;;;;;27.27;19.52;;;;;;;;;;5054894;28;20045;-25
2022/06/02 05:02:32;;;;;;;19.10;15.95;;;;;;;;;;5054414;28;20040;-25
2022/06/02 05:05:16;;;;;;;19.83;14.85;;;;;;;;;;5054335;28;20049;-25
2022/06/02 05:07:54;;;;;;;20.67;14.75;;;;;;;;;;5070330;28;20111;-25
2022/06/02 05:10:32;;;;;;;16.23;14.02;;;;;;;;;;5055355;28;20069;-25
2022/06/02 05:13:17;;;;;;;15.48;11.18;;;;;;;;;;5055822;28;20097;-25
2022/06/02 05:16:00;;;;;;;14.95;10.57;;;;;;;;;;5055028;28;20159;-25
2022/06/02 05:18:29;;;;;;;12.88;9.98;;;;;;;;;;5054264;28;20045;-25
2022/06/02 05:20:58;;;;;;;15.20;8.23;;;;;;;;;;5055035;28;20052;-25
2022/06/02 05:23:43;;;;;;;13.35;8.85;;;;;;;;;;5057932;28;20056;-25
2022/06/02 05:26:27;;;;;;;11.68;7.35;;;;;;;;;;5073387;28;20078;-25
2022/06/02 05:29:11;;;;;;;7.45;6.57;;;;;;;;;;5063317;28;20084;-25
2022/06/02 05:31:47;;;;;;;7.00;6.18;;;;;;;;;;5054779;28;20480;-25
2022/06/02 05:34:39;;;;;;;7.47;5.95;;;;;;;;;;5036485;28;20545;-25
2022/06/02 05:37:14;;;;;;;7.20;5.53;;;;;;;;;;5051889;28;20406;-25
2022/06/02 05:39:50;;;;;;;7.35;5.00;;;;;;;;;;5054310;28;20052;-25
2022/06/02 05:42:18;;;;;;;6.40;5.30;;;;;;;;;;5037433;28;20436;-25
2022/06/02 05:44:47;;;;;;;7.10;5.03;;;;;;;;;;5053685;28;20057;-25
2022/06/02 05:47:19;;;;;;;8.73;5.03;;;;;;;;;;5053480;28;20103;-25
2022/06/02 05:49:45;;;;;;;6.90;4.65;;;;;;;;;;5054121;28;20049;-25
2022/06/02 05:52:26;;;;;;;6.93;5.50;;;;;;;;;;5054639;28;20087;-25
2022/06/02 05:55:11;;;;;;;5.38;4.80;;;;;;;;;;5053758;28;20084;-25
2022/06/02 05:57:42;;;;;;;7.28;4.45;;;;;;;;;;5054565;28;20044;-25
2022/06/02 06:00:11;;;;;;;4.32;3.90;;;;;;;;;;5060318;28;20040;-25
2022/06/02 06:02:49;;;;;;;5.38;3.90;;;;;;;;;;5073916;28;20127;-25
2022/06/02 06:05:15;;;;;;;4.13;2.80;;;;;;;;;;5055332;28;20056;-25
2022/06/02 06:08:00;;;;;;;6.97;2.70;;;;;;;;;;5052888;28;20048;-25
2022/06/02 06:10:32;;;;;;;2.35;2.15;;;;;;;;;;5052094;28;20098;-25
2022/06/02 06:13:12;;;;;;;5.03;2.80;;;;;;;;;;5055670;28;20056;-25
2022/06/02 06:15:50;;;;;;;5.13;2.55;;;;;;;;;;5053880;28;20044;-25
2022/06/02 06:18:19;;;;;;;4.95;2.70;;;;;;;;;;5052589;28;20041;-25
2022/06/02 06:20:55;;;;;;;5.30;3.00;;;;;;;;;;5053124;28;20130;-25
2022/06/02 06:23:41;;;;;;;7.65;2.80;;;;;;;;;;5053660;28;20056;-25
2022/06/02 06:26:13;;;;;;;4.65;2.10;;;;;;;;;;5053491;28;20049;-24
2022/06/02 06:28:49;;;;;;;4.47;2.35;;;;;;;;;;5053000;28;20133;-25
2022/06/02 06:31:19;;;;;;;4.28;2.05;;;;;;;;;;5052865;28;20037;-25
2022/06/02 06:33:48;;;;;;;3.13;2.00;;;;;;;;;;5054150;28;20045;-24
2022/06/02 06:36:14;;;;;;;4.47;1.80;;;;;;;;;;5054106;28;20052;-24
2022/06/02 06:38:46;;;;;;;2.20;1.67;;;;;;;;;;5053622;28;20404;-24
2022/06/02 06:41:16;;;;;;;4.75;1.45;;;;;;;;;;5035061;28;20064;-24
2022/06/02 06:43:55;;;;;;;5.70;1.58;;;;;;;;;;5053018;28;20049;-24
2022/06/02 06:46:30;;;;;;;4.97;1.60;;;;;;;;;;5060066;28;20040;-24
2022/06/02 06:48:57;;;;;;;2.67;1.73;;;;;;;;;;5053001;28;20077;-24
2022/06/02 06:51:42;;;;;;;4.55;1.73;;;;;;;;;;5068186;28;20122;-24
2022/06/02 06:54:13;;;;;;;3.15;2.05;;;;;;;;;;5073413;28;20068;-24
2022/06/02 06:56:40;;;;;;;5.00;2.00;;;;;;;;;;5067199;28;20107;-24
2022/06/02 06:59:13;;;;;;;5.18;2.03;;;;;;;;;;5053067;28;20107;-24
2022/06/02 07:01:43;;;;;;;5.63;1.70;;;;;;;;;;5055329;28;20045;-24
2022/06/02 07:04:09;;;;;;;3.00;1.40;;;;;;;;;;5057347;28;20041;-24
2022/06/02 07:06:35;;;;;;;2.95;1.48;;;;;;;;;;5056293;28;20052;-25
2022/06/02 07:09:20;;;;;;;5.32;1.88;;;;;;;;;;5058105;28;20045;-24
2022/06/02 07:14:47;;;;;;;3.72;2.22;;;;;;;;;;5063051;28;20044;-26
2022/06/02 07:17:28;;;;;;;3.47;1.33;;;;;;;;;;5065793;28;20460;-25
2022/06/02 07:19:54;;;;;;;2.92;1.13;;;;;;;;;;5065176;28;20032;-25
2022/06/02 07:22:46;;;;;;;4.05;1.98;;;;;;;;;;5050371;28;20048;-24
2022/06/02 07:25:21;;;;;;;5.93;1.75;;;;;;;;;;5074529;28;20231;-25
2022/06/02 07:27:47;;;;;;;4.28;1.42;;;;;;;;;;5057164;28;20045;-24
2022/06/02 07:30:29;;;;;;;5.25;1.30;;;;;;;;;;5055855;28;20148;-25
2022/06/02 07:33:09;;;;;;;2.25;1.23;;;;;;;;;;5074213;28;20139;-24
2022/06/02 07:35:35;;;;;;;2.63;1.42;;;;;;;;;;5056829;28;20045;-24
2022/06/02 07:38:07;;;;;;;5.18;1.17;;;;;;;;;;5061888;28;20071;-25
2022/06/02 07:41:01;;;;;;;3.63;1.17;;;;;;;;;;5076606;28;20049;-24
2022/06/02 07:43:41;;;;;;;6.50;0.90;;;;;;;;;;5075904;28;20091;-24
2022/06/02 07:46:26;;;;;;;5.82;1.60;;;;;;;;;;5076526;28;20040;-24
2022/06/02 07:49:08;;;;;;;5.00;1.45;;;;;;;;;;5076285;28;20174;-24
2022/06/02 07:51:35;;;;;;;3.63;1.20;;;;;;;;;;5072094;28;20128;-24
2022/06/02 07:54:04;;;;;;;2.90;1.30;;;;;;;;;;5075401;28;20052;-24
2022/06/02 07:56:30;;;;;;;4.72;1.40;;;;;;;;;;5076286;28;20040;-24
2022/06/02 07:59:16;;;;;;;2.63;1.25;;;;;;;;;;5076299;28;20131;-24
2022/06/02 08:02:02;;;;;;;2.42;1.17;;;;;;;;;;5046497;28;20128;-25
2022/06/02 08:04:38;;;;;;;2.67;1.10;;;;;;;;;;5056408;28;20053;-25
2022/06/02 08:07:06;;;;;;;2.47;1.15;;;;;;;;;;5055002;28;20498;-24
2022/06/02 08:09:32;;;;;;;2.65;1.30;;;;;;;;;;5056244;28;20056;-24
2022/06/02 08:12:06;;;;;;;4.07;0.93;;;;;;;;;;5058311;28;20132;-24
2022/06/02 08:14:40;;;;;;;3.58;1.00;;;;;;;;;;5073693;28;20053;-25
2022/06/02 08:17:09;;;;;;;2.55;1.05;;;;;;;;;;5065014;28;20040;-24
2022/06/02 08:19:36;;;;;;;3.83;0.73;;;;;;;;;;5077138;28;20186;-24
2022/06/02 08:22:03;;;;;;;2.10;0.80;;;;;;;;;;5075453;28;20379;-24
2022/06/02 08:24:47;;;;;;;1.83;0.77;;;;;;;;;;5075083;28;20057;-24
2022/06/02 08:27:13;;;;;;;2.45;1.02;;;;;;;;;;5075730;28;20460;-24
2022/06/02 08:29:49;;;;;;;3.60;1.45;;;;;;;;;;5070387;28;20448;-25
2022/06/02 08:32:18;;;;;;;5.47;1.02;;;;;;;;;;5066035;28;20047;-25
2022/06/02 08:34:44;;;;;;;2.83;1.27;;;;;;;;;;5055834;28;20045;-24
2022/06/02 08:37:22;;;;;;;2.15;1.00;;;;;;;;;;5065144;28;20154;-24
2022/06/02 08:39:51;;;;;;;4.72;0.95;;;;;;;;;;5075865;28;20041;-24
2022/06/02 08:42:33;;;;;;;4.60;1.23;;;;;;;;;;5074655;28;20402;-24
2022/06/02 08:45:18;;;;;;;2.03;1.10;;;;;;;;;;5075466;28;20105;-24
2022/06/02 08:47:56;;;;;;;7.85;1.58;;;;;;;;;;5054652;28;20119;-25
2022/06/02 08:50:28;;;;;;;3.53;1.10;;;;;;;;;;5069619;28;20039;-25
2022/06/02 08:53:07;;;;;;;6.15;1.23;;;;;;;;;;5076077;28;20421;-24
2022/06/02 08:56:05;;;;;;;2.17;0.80;;;;;;;;;;5074198;28;20110;-25
2022/06/02 08:58:47;;;;;;;3.65;1.65;;;;;;;;;;5046434;28;20049;-25
2022/06/02 09:01:32;;;;;;;4.82;1.00;;;;;;;;;;5074045;28;20080;-24
2022/06/02 09:04:16;;;;;;;2.42;0.98;;;;;;;;;;5066632;28;20049;-25
2022/06/02 09:06:51;;;;;;;4.15;1.10;;;;;;;;;;5054929;28;20045;-25
2022/06/02 09:09:30;;;;;;;2.65;1.13;;;;;;;;;;5055791;28;20041;-25
2022/06/02 09:12:09;;;;;;;2.28;0.95;;;;;;;;;;5059581;28;20517;-25
2022/06/02 09:14:54;;;;;;;3.63;1.35;;;;;;;;;;5057704;28;20497;-24
2022/06/02 09:17:50;;;;;;;2.42;1.33;;;;;;;;;;5074820;28;20490;-25
2022/06/02 09:20:21;;;;;;;3.75;1.20;;;;;;;;;;5050583;28;20140;-25
2022/06/02 09:23:07;;;;;;;3.45;1.08;;;;;;;;;;5053629;28;20080;-25
2022/06/02 09:25:39;;;;;;;3.78;1.15;;;;;;;;;;5054562;28;20157;-25
2022/06/02 09:28:08;;;;;;;4.15;1.25;;;;;;;;;;5054258;28;20509;-25
2022/06/02 09:30:53;;;;;;;6.45;1.42;;;;;;;;;;5053847;28;20045;-25
2022/06/02 09:34:01;;;;;;;4.00;1.17;;;;;;;;;;5071074;28;20214;-25
2022/06/02 09:36:14;;;;;;;3.13;1.10;;;;;;;;;;5071354;28;20059;-25
2022/06/02 09:38:59;;;;;;;2.93;1.10;;;;;;;;;;5074381;28;20075;-25
2022/06/02 09:41:34;;;;;;;2.90;0.93;;;;;;;;;;5068622;28;20049;-25
2022/06/02 09:44:04;;;;;;;2.47;0.82;;;;;;;;;;5054340;28;20048;-25
2022/06/02 09:46:49;;;;;;;6.47;1.63;;;;;;;;;;5053268;28;20060;-25
2022/06/02 09:49:34;;;;;;;5.60;1.30;;;;;;;;;;5054236;28;20051;-25
2022/06/02 09:52:09;;;;;;;3.42;1.48;;;;;;;;;;5054214;28;20126;-25
2022/06/02 09:54:47;;;;;;;2.13;1.30;;;;;;;;;;5054113;28;20048;-25
2022/06/02 10:00:27;;;;;;;4.07;1.25;;;;;;;;;;5066134;28;20102;-25
2022/06/02 10:02:56;;;;;;;2.75;1.20;;;;;;;;;;5071524;28;20049;-25
2022/06/02 10:05:40;;;;;;;4.38;1.30;;;;;;;;;;5053891;28;20048;-24
2022/06/02 10:08:06;;;;;;;1.70;1.20;;;;;;;;;;5072717;28;20044;-25
2022/06/02 10:10:41;;;;;;;4.35;1.52;;;;;;;;;;5061436;28;20094;-25
2022/06/02 10:13:08;;;;;;;2.00;1.20;;;;;;;;;;5053208;28;20049;-25
2022/06/02 10:15:43;;;;;;;3.50;1.30;;;;;;;;;;5061929;28;20517;-25
2022/06/02 10:18:19;;;;;;;2.33;0.93;;;;;;;;;;5074402;28;20389;-25
2022/06/02 10:20:54;;;;;;;5.57;1.70;;;;;;;;;;5074106;28;20140;-25
2022/06/02 10:23:32;;;;;;;2.67;1.33;;;;;;;;;;5074621;28;20051;-25
2022/06/02 10:26:05;;;;;;;3.38;1.08;;;;;;;;;;5071955;28;20095;-25
2022/06/02 10:28:44;;;;;;;7.43;1.20;;;;;;;;;;5073707;28;20132;-25
2022/06/02 10:31:22;;;;;;;2.63;1.10;;;;;;;;;;5073599;28;20394;-25
2022/06/02 10:34:04;;;;;;;2.53;1.20;;;;;;;;;;5073363;28;20513;-25
2022/06/02 10:36:49;;;;;;;3.72;1.08;;;;;;;;;;5065460;28;20060;-26
2022/06/02 10:39:21;;;;;;;3.20;1.05;;;;;;;;;;5070102;28;20052;-26
2022/06/02 10:41:53;;;;;;;2.50;1.23;;;;;;;;;;5063052;28;20052;-25
2022/06/02 10:44:29;;;;;;;2.13;1.20;;;;;;;;;;5073793;28;20048;-25
2022/06/02 10:46:55;;;;;;;4.22;1.67;;;;;;;;;;5061638;28;20055;-25
2022/06/02 10:49:26;;;;;;;4.03;1.48;;;;;;;;;;5073448;28;20080;-25
2022/06/02 10:52:11;;;;;;;3.63;1.38;;;;;;;;;;5073724;28;20113;-25
2022/06/02 10:54:56;;;;;;;3.03;1.30;;;;;;;;;;5073402;28;20049;-25
2022/06/02 10:57:25;;;;;;;3.03;1.38;;;;;;;;;;5071086;28;20072;-25
2022/06/02 11:00:00;;;;;;;2.35;1.30;;;;;;;;;;5073354;28;20048;-25
2022/06/02 11:02:45;;;;;;;1.77;1.05;;;;;;;;;;5073288;28;20040;-25
2022/06/02 11:05:11;;;;;;;3.20;1.00;;;;;;;;;;5073232;28;20186;-24
2022/06/02 11:08:15;;;;;;;3.58;1.33;;;;;;;;;;5074747;28;20083;-25
2022/06/02 11:10:41;;;;;;;3.70;1.40;;;;;;;;;;5037116;28;20502;-25
2022/06/02 11:13:22;;;;;;;11.25;1.50;;;;;;;;;;5035633;28;20077;-25
2022/06/02 11:15:55;;;;;;;5.03;1.48;;;;;;;;;;5040415;28;20049;-25
2022/06/02 11:18:30;;;;;;;2.90;1.20;;;;;;;;;;5073763;28;20051;-25
2022/06/02 11:20:56;;;;;;;4.47;1.50;;;;;;;;;;5067958;28;20175;-25
2022/06/02 11:23:45;;;;;;;4.90;1.13;;;;;;;;;;5073184;28;20040;-25
2022/06/02 11:26:30;;;;;;;2.50;1.52;;;;;;;;;;5073186;28;20045;-25
2022/06/02 11:29:05;;;;;;;1.70;0.93;;;;;;;;;;5073087;28;20053;-25
2022/06/02 11:31:34;;;;;;;2.42;0.98;;;;;;;;;;5069588;28;20076;-25
2022/06/02 11:34:00;;;;;;;2.55;1.17;;;;;;;;;;5053008;28;20048;-25
2022/06/02 11:36:48;;;;;;;2.60;0.80;;;;;;;;;;5052967;28;20134;-25
2022/06/02 11:39:14;;;;;;;10.95;3.45;;;;;;;;;;5052972;28;20049;-26
2022/06/02 11:41:51;;;;;;;1.27;0.80;;;;;;;;;;5051430;28;20100;-26
2022/06/02 11:44:37;;;;;;;21.52;4.80;;;;;;;;;;5053880;28;20045;-25
2022/06/02 11:47:06;;;;;;;4.07;1.40;;;;;;;;;;5054193;28;20049;-25
2022/06/02 11:49:35;;;;;;;3.60;0.98;;;;;;;;;;5055257;28;20041;-25
2022/06/02 11:52:17;;;;;;;4.50;1.20;;;;;;;;;;5056401;28;20052;-25
2022/06/02 11:55:01;;;;;;;3.08;1.00;;;;;;;;;;5058305;28;20057;-25
2022/06/02 11:57:35;;;;;;;4.07;1.10;;;;;;;;;;5066510;28;20052;-25
2022/06/02 12:00:01;;;;;;;4.03;1.40;;;;;;;;;;5077477;28;20089;-25
2022/06/02 12:02:50;;;;;;;3.45;1.13;;;;;;;;;;5076218;28;20048;-25
2022/06/02 12:05:19;;;;;;;3.00;1.20;;;;;;;;;;5075602;28;20093;-25
2022/06/02 12:07:45;;;;;;;7.38;1.85;;;;;;;;;;5076167;28;20080;-26
2022/06/02 12:10:30;;;;;;;3.70;1.10;;;;;;;;;;5069075;28;20037;-25
2022/06/02 12:13:15;;;;;;;3.45;1.23;;;;;;;;;;5056575;28;20053;-26
2022/06/02 12:15:52;;;;;;;2.72;1.17;;;;;;;;;;5055733;28;20525;-25
2022/06/02 12:18:26;;;;;;;3.25;1.08;;;;;;;;;;5055998;28;20098;-25
2022/06/02 12:21:11;;;;;;;2.03;0.93;;;;;;;;;;5061911;28;20048;-25
2022/06/02 12:23:43;;;;;;;7.40;1.48;;;;;;;;;;5076151;28;20123;-25
2022/06/02 12:26:24;;;;;;;1.42;0.88;;;;;;;;;;5075831;28;20052;-25
2022/06/02 12:28:57;;;;;;;1.65;0.93;;;;;;;;;;5074589;28;20109;-25
2022/06/02 12:31:35;;;;;;;1.40;0.73;;;;;;;;;;5067270;28;20041;-26
2022/06/02 12:34:04;;;;;;;3.03;1.05;;;;;;;;;;5055919;28;20461;-25
2022/06/02 12:36:36;;;;;;;2.25;1.00;;;;;;;;;;5054594;28;20055;-25
2022/06/02 12:39:17;;;;;;;3.08;1.25;;;;;;;;;;5055599;28;20056;-26
2022/06/02 12:41:52;;;;;;;2.42;0.90;;;;;;;;;;5056661;28;20143;-26
2022/06/02 12:44:45;;;;;;;3.25;1.05;;;;;;;;;;5072151;28;20049;-25
2022/06/02 12:47:30;;;;;;;10.95;3.05;;;;;;;;;;5066718;28;20048;-26
2022/06/02 12:50:00;;;;;;;9.98;2.15;;;;;;;;;;5075193;28;20101;-25
2022/06/02 12:52:46;;;;;;;4.57;1.50;;;;;;;;;;5067807;28;20376;-25
2022/06/02 12:55:21;;;;;;;6.13;1.35;;;;;;;;;;5054739;28;20106;-26
2022/06/02 12:58:06;;;;;;;7.60;2.00;;;;;;;;;;5054346;28;20037;-25
2022/06/02 13:00:47;;;;;;;4.82;1.63;;;;;;;;;;5055040;28;20045;-25
2022/06/02 13:03:19;;;;;;;10.75;3.65;;;;;;;;;;5063559;28;20567;-25
2022/06/02 13:05:48;;;;;;;8.05;2.67;;;;;;;;;;5074904;28;20048;-26
2022/06/02 13:08:24;;;;;;;2.63;0.77;;;;;;;;;;5074941;28;20049;-26
2022/06/02 13:11:08;;;;;;;3.53;1.02;;;;;;;;;;5074836;28;20041;-26
2022/06/02 13:13:49;;;;;;;2.55;1.17;;;;;;;;;;5072225;28;20052;-25
2022/06/02 13:16:22;;;;;;;2.00;1.00;;;;;;;;;;5074008;28;20044;-26
2022/06/02 13:18:52;;;;;;;4.47;1.50;;;;;;;;;;5074765;28;20066;-26
2022/06/02 13:21:30;;;;;;;3.00;1.27;;;;;;;;;;5074679;28;20283;-26
2022/06/02 13:24:03;;;;;;;2.53;1.10;;;;;;;;;;5067015;28;20091;-26
2022/06/02 13:26:32;;;;;;;3.88;1.58;;;;;;;;;;5055435;28;20380;-25
2022/06/02 13:29:19;;;;;;;4.68;1.23;;;;;;;;;;5054870;28;20124;-25
2022/06/02 13:32:04;;;;;;;4.80;1.25;;;;;;;;;;5037565;28;20136;-26
2022/06/02 13:34:51;;;;;;;5.03;1.58;;;;;;;;;;5055164;28;20041;-25
2022/06/02 13:37:43;;;;;;;2.90;0.98;;;;;;;;;;5063256;28;20043;-26
2022/06/02 13:40:28;;;;;;;9.90;2.80;;;;;;;;;;5062805;28;20055;-25
2022/06/02 13:43:13;;;;;;;11.50;2.92;;;;;;;;;;5073341;28;20139;-26
2022/06/02 13:45:48;;;;;;;4.63;1.40;;;;;;;;;;5074229;28;20083;-26
2022/06/02 13:48:33;;;;;;;6.80;1.67;;;;;;;;;;5074164;28;20098;-25
2022/06/02 13:51:29;;;;;;;3.40;1.20;;;;;;;;;;5065236;28;20048;-26
2022/06/02 14:00:01;;;;;;;3.10;1.27;;;;;;;;;;5070693;28;20045;-26
2022/06/02 14:02:43;;;;;;;4.45;1.38;;;;;;;;;;5062297;28;20043;-26
2022/06/02 14:05:27;;;;;;;2.33;1.10;;;;;;;;;;5071986;28;20452;-26
2022/06/02 14:08:13;;;;;;;3.92;1.08;;;;;;;;;;5073934;28;20049;-28
2022/06/02 14:10:49;;;;;;;5.72;2.00;;;;;;;;;;5073204;28;20044;-26
2022/06/02 14:13:40;;;;;;;13.18;2.45;;;;;;;;;;5069535;28;20123;-27
2022/06/02 14:16:22;;;;;;;3.22;1.60;;;;;;;;;;5056557;28;20049;-26
2022/06/02 14:18:58;;;;;;;3.35;1.17;;;;;;;;;;5060349;28;20053;-27
2022/06/02 14:21:32;;;;;;;4.82;1.55;;;;;;;;;;5071305;28;20406;-26
2022/06/02 14:24:05;;;;;;;2.70;0.90;;;;;;;;;;5074564;28;20409;-26
2022/06/02 14:26:51;;;;;;;14.65;3.47;;;;;;;;;;5072871;28;20051;-26
2022/06/02 14:29:20;;;;;;;4.50;1.20;;;;;;;;;;5073672;28;20045;-26
2022/06/02 14:32:15;;;;;;;4.65;1.00;;;;;;;;;;5073567;28;20134;-27
2022/06/02 14:35:00;;;;;;;1.80;0.90;;;;;;;;;;5068246;28;20097;-27
2022/06/02 14:37:34;;;;;;;2.95;0.95;;;;;;;;;;5052342;28;20402;-26
2022/06/02 14:40:05;;;;;;;3.92;0.98;;;;;;;;;;5053547;28;20413;-26
2022/06/02 14:43:07;;;;;;;4.97;1.17;;;;;;;;;;5053415;28;20095;-27
2022/06/02 14:45:33;;;;;;;1.48;0.82;;;;;;;;;;5054279;28;20053;-26
2022/06/02 14:48:05;;;;;;;2.08;0.50;;;;;;;;;;5053506;28;20048;-26
2022/06/02 14:50:37;;;;;;;2.88;1.05;;;;;;;;;;5053330;28;20128;-26
2022/06/02 14:53:09;;;;;;;4.40;0.70;;;;;;;;;;5053060;28;20110;-26
2022/06/02 14:55:38;;;;;;;5.97;1.20;;;;;;;;;;5053527;28;20106;-27
2022/06/02 14:58:14;;;;;;;4.43;1.17;;;;;;;;;;5052924;28;20132;-26
2022/06/02 15:00:52;;;;;;;1.30;0.68;;;;;;;;;;5061111;28;20098;-26
2022/06/02 15:03:37;;;;;;;2.38;0.88;;;;;;;;;;5059477;28;20549;-26
2022/06/02 15:06:07;;;;;;;3.78;1.08;;;;;;;;;;5073108;28;20397;-26
2022/06/02 15:08:34;;;;;;;2.63;0.77;;;;;;;;;;5073598;28;20405;-26
2022/06/02 15:11:02;;;;;;;2.58;0.80;;;;;;;;;;5073219;28;20367;-26
2022/06/02 15:13:40;;;;;;;2.83;0.68;;;;;;;;;;5070898;28;20513;-27
2022/06/02 15:16:09;;;;;;;1.98;0.75;;;;;;;;;;5070031;28;20063;-26
2022/06/02 15:18:41;;;;;;;2.90;0.68;;;;;;;;;;5073212;28;20045;-26
2022/06/02 15:21:15;;;;;;;2.00;0.60;;;;;;;;;;5073853;28;20048;-26
2022/06/02 15:23:52;;;;;;;3.13;0.85;;;;;;;;;;5077580;28;20367;-27
2022/06/02 15:26:22;;;;;;;1.95;0.50;;;;;;;;;;5055959;28;20399;-27
2022/06/02 15:28:54;;;;;;;1.40;0.63;;;;;;;;;;5056852;28;20048;-27
2022/06/02 15:31:29;;;;;;;2.35;0.40;;;;;;;;;;5056782;28;20064;-26
2022/06/02 15:33:58;;;;;;;1.20;0.52;;;;;;;;;;5056749;28;20502;-26
2022/06/02 15:36:43;;;;;;;8.45;1.00;;;;;;;;;;5056575;28;20389;-26
2022/06/02 15:39:18;;;;;;;1.65;0.60;;;;;;;;;;5062104;28;20111;-26
2022/06/02 15:42:03;;;;;;;1.98;0.32;;;;;;;;;;5059270;28;20036;-26
2022/06/02 15:44:48;;;;;;;2.42;0.60;;;;;;;;;;5075684;28;20048;-26